Hovedside
METAR-TAF:

METAR-TAF

Lufthavner :

Harstad/Narvik lufthavn. Evenes

Evenes, Norge

breddegrad: 68-31N, lengdegrad: 016-41E, høyde over havet: 26 m

Gjeldene værobservasjon

Denne rapporten ble laget for 58 minutter siden, klokken 10:50 UTC
Vind 1 kt fra skiftende retning
Temperatur -2°C
Luftfuktighet 86%
Trykk 991 hPa
Sikt 10 km eller mer
Spredte skyer i en høyde av 3100 ft
Brutte skyer i en høyde av 7400 ft

METAR: ENEV 241050Z VRB01KT 9999 SCT031 BKN074 M02/M04 Q0991 RMK WIND 1400FT 28017KT

Tid: 12:48 (11:48 UTC)

Varsel

Denne rapporten ble laget for 48 minutter siden, klokken 11:00 UTC
Varsel gyldig fra 24. klokken 12 UTC til 24. klokken 21 UTC
Vind 8 kt fra Vest-nordvest
Sikt 10 km eller mer
Få skyer i en høyde av 1500 ft, Bygeskyer.
Brutte skyer i en høyde av 4000 ft
lette snøbyger
Midlertidig
fra 24. klokken 12 UTC til 24. klokken 21 UTC
Sikt: 0800 m
i en høyde av 500 ft
snøbyger

TAF: ENEV 241100Z 2412/2421 30008KT 9999 -SHSN FEW015CB BKN040 TEMPO 2412/2421 0800 SHSN VV005

Værobservasjoner og værvarsel for over 4000 flyplasser (METAR- og TAF-rapporter).

Tilgjengelige stasjoner er representert av de røde og gule prikkene på kartet.

Hold musepekeren over prikken for å se navnet på stasjonen.

Klikk så for å se værobservasjoner og -varsler.

For å forandre kartet kan du klikke på den grønne knappen med svart kryss for å zoome inn, på den grønne knappen med strek for å zoome ut, eller på de grønne pilene for å se tilstøtende kart.


METAR-TAF: